Aeroporto :







RITROVATECI SU...

 
LOGIN :

Iscrizione | Disclaimer

   EN    FR    IT 

 









Sommario :    VFR   VFR Marginale   IFR   IFR Intensivo   IFR Molto Intensivo
Visibilità : 
Base nubi : 
>= 8 km
>= 3000ft
5 / 8 km
1000 / 3000 ft
1500m / 5 km
500 / 1000 ft
800 / 1500m
200 / 500 ft
< 800m
< 200 ft
Simboli :   Temporali  Nebbia  Neve Forte  Precipitazioni Forti  Vento > 20 kt






- Altitudine del aeroporto : 232 ft
- Codice IATA : YQM


CYQM - Greater Moncton International

ULTIMO METAR :
  • 131700Z 27018G30KT 15SM -SHSN OVC032 M05/M10 A2972 RMK SC8 CVCTV CLD EMBD SLP070

METARs OBSOLETI :
  • 131653Z 26021G30KT 15SM -SHSN OVC032 M05/M11 A2972 RMK SC8 CVCTV CLD EMBD SLP070
  • 131600Z 24020G26KT 15SM SCT023 BKN260 M05/M10 A2970 RMK SC3CI2 SLP064
  • 131500Z 25019G27KT 15SM SCT023 SCT140 BKN260 M06/M11 A2969 RMK SC4AC1CI2 AC TR SLP060

TAF TAF CYQM
Valido dal 13 a 18 ore il 14 a 18 ore UTC


131738Z 1318/1418 27020G30KT P6SM BKN030
BECMG 1322/1324 27015G25KT
BECMG 1401/1403 27012KT
FM140600 26008KT P6SM SKC
FM141200 24008KT P6SM BKN150 RMK NXT FCST BY 140000Z



MetMap, La meteo Aeronautica in un colpo d'occhio ! - Copyright ORBIFLY Dicembre 2007 - Disclaimer

ORBIFLY MET'MAP TEAM :

Programmazione e sviluppo : Alexandra Zaïnal
Concezione e sviluppo : Baudouin d'Aumeries
Co-Programmazione e sviluppo : Marc-Olivier Méhu
Supporto tecnico e logistico : Manuel Goepfert
Aiuto per la traduzione : Arnaldo La Scala

Contatto : metmap@orbifly.com




FONTI E CREDITI :

   NOAA